Terminal Aerodrome Forecast
Issued by NWS Cleveland, OH

Home | Current Version | Previous Version | Graphics & Text | Print | Product List | Glossary On
Versions: 1 2 3 4 5 6 7 8 9 10 11 12 13 14 15 16 17 18 19 20 21 22 23 24 25 26
965
FTUS41 KCLE 210258 AAA
TAFCLE
TAF AMD
KCLE 210258Z 2103/2206 12004KT P6SM SKC
     FM210900 16004KT P6SM SKC
     FM211400 22007KT P6SM SCT060
     FM211800 24010KT P6SM SCT050
     FM220300 20006KT P6SM BKN060=

USA.gov is the U.S. government's official web portal to all federal, state and local government web resources and services.